Metar GG30 METAR message from awiacja.imgw.pl Metar G30 EPWR METAR EPWR 240430Z 13008KT 0300 R29/1100U FG VV001 11/11 Q1013 =